createdAt,value
2024-03-12T00:01:48.650Z,12.20
2024-03-12T00:04:16.261Z,11.40
2024-03-12T00:06:43.797Z,11.70
2024-03-12T00:09:11.466Z,11.40
2024-03-12T00:11:38.783Z,12.20
2024-03-12T00:14:06.197Z,12.10
2024-03-12T00:16:35.470Z,11.60
2024-03-12T00:19:04.087Z,12.60
2024-03-12T00:21:31.978Z,12.50
2024-03-12T00:24:00.501Z,15.10
2024-03-12T00:26:30.149Z,14.00
2024-03-12T00:28:57.672Z,13.90
2024-03-12T00:31:25.784Z,13.70
2024-03-12T00:33:53.545Z,15.50
2024-03-12T00:36:21.027Z,13.80
2024-03-12T00:38:48.455Z,14.70
2024-03-12T00:41:15.726Z,14.20
2024-03-12T00:43:43.856Z,14.50
2024-03-12T00:46:12.213Z,14.80
2024-03-12T00:48:39.796Z,14.40
2024-03-12T00:51:10.169Z,14.20
2024-03-12T00:56:05.398Z,15.00
2024-03-12T00:58:35.211Z,16.80
2024-03-12T01:01:04.996Z,14.50
2024-03-12T01:03:32.468Z,14.20
2024-03-12T01:05:59.834Z,16.40
2024-03-12T01:08:27.195Z,16.40
2024-03-12T01:10:54.573Z,14.10
2024-03-12T01:13:22.072Z,15.90
2024-03-12T01:15:49.597Z,14.20
2024-03-12T01:18:17.171Z,15.00
2024-03-12T01:20:45.352Z,14.40
2024-03-12T01:23:14.827Z,16.20
2024-03-12T01:25:42.869Z,13.20
2024-03-12T01:28:11.820Z,13.90
2024-03-12T01:30:40.894Z,12.90
2024-03-12T01:33:08.815Z,13.20
2024-03-12T01:35:40.884Z,13.70
2024-03-12T01:38:11.792Z,13.80
2024-03-12T01:40:40.521Z,14.10
2024-03-12T01:43:08.974Z,13.80
2024-03-12T01:45:37.438Z,12.10
2024-03-12T01:48:10.552Z,12.50
2024-03-12T01:50:40.573Z,12.70
2024-03-12T01:53:09.260Z,13.50
2024-03-12T01:55:45.034Z,13.80
2024-03-12T01:58:16.636Z,13.80
2024-03-12T02:00:46.254Z,12.40
2024-03-12T02:03:14.180Z,12.60
2024-03-12T02:05:43.058Z,13.10
2024-03-12T02:08:11.057Z,12.90
2024-03-12T02:10:38.522Z,11.80
2024-03-12T02:13:06.496Z,12.10
2024-03-12T02:15:35.727Z,11.30
2024-03-12T02:18:03.366Z,11.30
2024-03-12T02:20:30.757Z,16.10
2024-03-12T02:22:58.095Z,14.50
2024-03-12T02:25:25.556Z,11.20
2024-03-12T02:27:53.652Z,13.20
2024-03-12T02:30:22.175Z,12.50
2024-03-12T02:32:50.253Z,13.40
2024-03-12T02:35:18.452Z,14.80
2024-03-12T02:37:46.304Z,12.60
2024-03-12T02:40:15.222Z,12.40
2024-03-12T02:42:43.982Z,10.50
2024-03-12T02:45:16.725Z,12.30
2024-03-12T02:47:46.909Z,13.00
2024-03-12T02:50:16.642Z,13.80
2024-03-12T02:52:45.525Z,13.70
2024-03-12T02:55:12.896Z,12.90
2024-03-12T02:57:42.332Z,14.10
2024-03-12T03:00:14.698Z,13.10
2024-03-12T03:02:44.200Z,13.60
2024-03-12T03:05:12.554Z,14.50
2024-03-12T03:07:44.372Z,13.50
2024-03-12T03:10:13.435Z,13.70
2024-03-12T03:12:44.794Z,14.10
2024-03-12T03:17:47.458Z,14.70
2024-03-12T03:20:18.048Z,14.50
2024-03-12T03:22:48.376Z,15.60
2024-03-12T03:25:16.299Z,15.00
2024-03-12T03:27:44.097Z,16.90
2024-03-12T03:30:14.235Z,16.20
2024-03-12T03:32:42.234Z,16.10
2024-03-12T03:35:09.740Z,16.90
2024-03-12T03:37:37.085Z,16.90
2024-03-12T03:40:12.693Z,17.70
2024-03-12T03:42:42.884Z,19.70
2024-03-12T03:45:10.570Z,19.70
2024-03-12T03:47:37.989Z,18.50
2024-03-12T03:50:09.406Z,17.80
2024-03-12T03:52:40.432Z,18.00
2024-03-12T03:55:08.493Z,17.80
2024-03-12T03:57:36.559Z,20.00
2024-03-12T04:00:14.330Z,20.60
2024-03-12T04:02:44.425Z,21.70
2024-03-12T04:05:12.728Z,20.50
2024-03-12T04:07:41.982Z,22.00
2024-03-12T04:10:12.961Z,23.60
2024-03-12T04:12:43.274Z,20.00
2024-03-12T04:15:13.615Z,20.80
2024-03-12T04:17:43.572Z,22.70
2024-03-12T04:20:12.644Z,16.90
2024-03-12T04:22:41.106Z,21.60
2024-03-12T04:25:09.217Z,22.40
2024-03-12T04:27:39.699Z,23.10
2024-03-12T04:30:10.370Z,21.20
2024-03-12T04:35:06.642Z,22.10
2024-03-12T04:37:34.009Z,25.90
2024-03-12T04:40:01.913Z,23.20
2024-03-12T04:42:29.426Z,21.70
2024-03-12T04:44:58.375Z,22.40
2024-03-12T04:47:25.699Z,24.40
2024-03-12T04:49:55.100Z,24.80
2024-03-12T04:52:22.521Z,25.60
2024-03-12T04:54:49.943Z,24.60
2024-03-12T04:57:17.276Z,24.90
2024-03-12T04:59:45.016Z,25.30
2024-03-12T05:02:12.418Z,26.80
2024-03-12T05:04:40.138Z,24.20
2024-03-12T05:07:07.761Z,26.00
2024-03-12T05:09:36.155Z,30.10
2024-03-12T05:12:03.684Z,26.10
2024-03-12T05:14:31.022Z,26.90
2024-03-12T05:17:00.269Z,26.60
2024-03-12T05:19:27.856Z,26.20
2024-03-12T05:21:55.178Z,29.20
2024-03-12T05:24:22.738Z,27.40
2024-03-12T05:26:51.332Z,24.00
2024-03-12T05:29:18.924Z,25.40
2024-03-12T05:31:46.274Z,23.60
2024-03-12T05:34:28.918Z,24.80
2024-03-12T05:37:05.857Z,26.90
2024-03-12T05:39:49.639Z,28.10
2024-03-12T05:42:36.482Z,23.10
2024-03-12T05:45:23.384Z,23.50
2024-03-12T05:48:10.796Z,25.80
2024-03-12T05:50:39.887Z,29.50
2024-03-12T05:53:07.255Z,25.40
2024-03-12T05:55:34.651Z,28.70
2024-03-12T05:58:02.682Z,28.10
2024-03-12T06:00:31.373Z,22.80
2024-03-12T06:02:58.873Z,26.00
2024-03-12T06:05:27.701Z,24.20
2024-03-12T06:07:55.107Z,23.60
2024-03-12T06:10:23.191Z,23.50
2024-03-12T06:12:50.996Z,24.50
2024-03-12T06:15:18.581Z,25.60
2024-03-12T06:17:47.588Z,25.50
2024-03-12T06:20:15.542Z,30.40
2024-03-12T06:22:46.080Z,27.90
2024-03-12T06:25:13.747Z,24.80
2024-03-12T06:27:42.920Z,24.80
2024-03-12T06:30:11.020Z,24.80
2024-03-12T06:32:38.484Z,23.60
2024-03-12T06:35:09.093Z,24.80
2024-03-12T06:37:36.394Z,24.50
2024-03-12T06:40:07.021Z,25.80
2024-03-12T06:42:34.622Z,27.90
2024-03-12T06:45:03.600Z,24.60
2024-03-12T06:47:38.077Z,23.20
2024-03-12T06:50:11.534Z,27.80
2024-03-12T06:52:42.998Z,28.20
2024-03-12T06:55:17.107Z,30.50
2024-03-12T06:57:49.455Z,23.70
2024-03-12T07:00:24.266Z,23.40
2024-03-12T07:02:51.708Z,22.40
2024-03-12T07:05:19.274Z,24.50
2024-03-12T07:07:48.091Z,24.80
2024-03-12T07:10:16.627Z,28.50
2024-03-12T07:12:44.263Z,24.60
2024-03-12T07:15:13.085Z,26.20
2024-03-12T07:17:40.545Z,29.20
2024-03-12T07:20:12.256Z,26.70
2024-03-12T07:22:46.357Z,26.90
2024-03-12T07:25:14.664Z,30.00
2024-03-12T07:27:42.694Z,26.50
2024-03-12T07:30:11.567Z,28.10
2024-03-12T07:32:39.115Z,26.70
2024-03-12T07:35:07.855Z,27.20
2024-03-12T07:37:40.690Z,29.70
2024-03-12T07:40:13.918Z,28.90
2024-03-12T07:42:42.850Z,25.80
2024-03-12T07:45:11.701Z,29.70
2024-03-12T07:47:41.988Z,27.30
2024-03-12T07:50:10.520Z,30.30
2024-03-12T07:52:38.017Z,28.00
2024-03-12T07:55:07.518Z,30.60
2024-03-12T07:57:36.732Z,31.40
2024-03-12T08:00:16.391Z,28.60
2024-03-12T08:02:44.065Z,23.80
2024-03-12T08:05:13.063Z,28.90
2024-03-12T08:07:40.701Z,24.30
2024-03-12T08:10:11.231Z,29.20
2024-03-12T08:12:42.169Z,31.70
2024-03-12T08:15:10.765Z,27.20
2024-03-12T08:17:39.620Z,27.80
2024-03-12T08:20:12.014Z,28.10
2024-03-12T08:22:39.891Z,31.90
2024-03-12T08:25:11.007Z,30.10
2024-03-12T08:27:40.928Z,31.10
2024-03-12T08:30:10.095Z,28.40
2024-03-12T08:32:37.864Z,27.30
2024-03-12T08:35:06.514Z,25.60
2024-03-12T08:37:38.358Z,24.40
2024-03-12T08:40:08.789Z,27.00
2024-03-12T08:42:44.784Z,27.00
2024-03-12T08:45:21.313Z,26.70
2024-03-12T08:47:50.744Z,23.40
2024-03-12T08:50:18.516Z,26.60
2024-03-12T08:52:46.271Z,26.50
2024-03-12T08:55:14.681Z,28.00
2024-03-12T08:57:43.561Z,30.90
2024-03-12T09:00:14.826Z,26.90
2024-03-12T09:02:42.638Z,23.30
2024-03-12T09:05:10.957Z,26.00
2024-03-12T09:07:38.979Z,24.80
2024-03-12T09:10:13.067Z,24.90
2024-03-12T09:12:42.448Z,27.80
2024-03-12T09:15:10.936Z,27.20
2024-03-12T09:17:42.020Z,20.60
2024-03-12T09:20:13.592Z,21.30
2024-03-12T09:22:41.318Z,18.90
2024-03-12T09:25:10.082Z,22.30
2024-03-12T09:27:38.882Z,20.90
2024-03-12T09:30:08.833Z,21.60
2024-03-12T09:32:36.652Z,20.70
2024-03-12T09:35:04.672Z,20.00
2024-03-12T09:37:37.252Z,20.90
2024-03-12T09:40:07.128Z,22.10
2024-03-12T09:42:37.675Z,20.80
2024-03-12T09:47:38.260Z,21.70
2024-03-12T09:50:18.359Z,18.70
2024-03-12T09:52:47.762Z,21.30
2024-03-12T09:55:17.159Z,20.30
2024-03-12T09:57:46.158Z,18.90
2024-03-12T10:00:20.438Z,18.90
2024-03-12T10:02:49.685Z,23.10
2024-03-12T10:05:23.348Z,20.30
2024-03-12T10:08:14.755Z,19.80
2024-03-12T10:10:44.731Z,18.00
2024-03-12T10:13:16.418Z,17.10
2024-03-12T10:16:01.647Z,17.40
2024-03-12T10:18:31.051Z,18.60
2024-03-12T10:20:59.603Z,18.10
2024-03-12T10:23:30.857Z,17.90
2024-03-12T10:26:14.103Z,16.00
2024-03-12T10:28:42.297Z,19.20
2024-03-12T10:31:12.035Z,16.00
2024-03-12T10:33:43.629Z,16.20
2024-03-12T10:36:12.532Z,15.80
2024-03-12T10:38:44.308Z,16.40
2024-03-12T10:41:17.978Z,16.20
2024-03-12T10:43:56.679Z,17.20
2024-03-12T10:46:24.766Z,15.80
2024-03-12T10:48:52.752Z,14.80
2024-03-12T10:51:20.775Z,16.60
2024-03-12T10:53:51.712Z,14.30
2024-03-12T10:56:19.972Z,14.00
2024-03-12T10:58:50.652Z,14.50
2024-03-12T11:01:19.751Z,14.50
2024-03-12T11:03:49.750Z,13.20
2024-03-12T11:06:17.427Z,15.20
2024-03-12T11:08:45.270Z,13.20
2024-03-12T11:11:13.009Z,11.80
2024-03-12T11:13:41.515Z,12.00
2024-03-12T11:16:14.778Z,12.10
2024-03-12T11:18:42.708Z,11.50
2024-03-12T11:21:52.568Z,9.80
2024-03-12T11:24:27.272Z,8.90
2024-03-12T11:26:56.061Z,9.10
2024-03-12T11:30:12.833Z,8.60
2024-03-12T11:32:50.338Z,9.00
2024-03-12T11:35:18.251Z,7.60
2024-03-12T11:37:49.446Z,7.60
2024-03-12T11:40:31.680Z,8.10
2024-03-12T11:42:59.672Z,8.50
2024-03-12T11:45:42.678Z,6.30
2024-03-12T11:48:11.219Z,6.70
2024-03-12T11:50:44.494Z,7.10
2024-03-12T11:53:24.137Z,7.40
2024-03-12T11:56:12.626Z,7.70
2024-03-12T11:58:48.234Z,8.50
2024-03-12T12:01:36.114Z,6.30
2024-03-12T12:04:05.607Z,6.70
2024-03-12T12:06:33.480Z,6.10
2024-03-12T12:09:07.201Z,7.00
2024-03-12T12:11:36.466Z,6.40
2024-03-12T12:14:12.489Z,6.10
2024-03-12T12:16:41.061Z,6.10
2024-03-12T12:19:19.207Z,8.30
2024-03-12T12:21:53.670Z,6.80
2024-03-12T12:24:26.712Z,8.00
2024-03-12T12:26:55.208Z,9.60
2024-03-12T12:29:23.856Z,11.00
2024-03-12T12:31:53.157Z,9.60
2024-03-12T12:34:22.267Z,7.30
2024-03-12T12:36:51.642Z,10.70
2024-03-12T12:39:19.179Z,17.10
2024-03-12T12:41:47.490Z,6.90
2024-03-12T12:44:23.032Z,7.60
2024-03-12T12:46:54.473Z,6.50
2024-03-12T12:49:24.056Z,5.50
2024-03-12T12:51:52.138Z,5.00
2024-03-12T12:54:21.663Z,5.20
2024-03-12T12:56:50.847Z,6.90
2024-03-12T12:59:21.740Z,6.90
2024-03-12T13:01:50.386Z,8.10
2024-03-12T13:04:26.114Z,6.50
2024-03-12T13:06:56.278Z,6.50
2024-03-12T13:09:33.259Z,6.90
2024-03-12T13:12:01.866Z,6.60
2024-03-12T13:14:29.920Z,5.60
2024-03-12T13:17:00.283Z,6.40
2024-03-12T13:19:28.641Z,6.90
2024-03-12T13:21:57.857Z,6.90
2024-03-12T13:24:25.746Z,6.00
2024-03-12T13:26:53.191Z,6.10
2024-03-12T13:29:20.694Z,5.70
2024-03-12T13:31:48.006Z,6.00
2024-03-12T13:34:15.451Z,4.90
2024-03-12T13:36:44.635Z,7.00
2024-03-12T13:39:16.586Z,5.50
2024-03-12T13:41:44.104Z,6.10
2024-03-12T13:44:13.009Z,4.10
2024-03-12T13:46:44.048Z,6.80
2024-03-12T13:49:14.048Z,5.30
2024-03-12T13:51:44.044Z,7.10
2024-03-12T13:54:12.177Z,6.30
2024-03-12T13:56:40.632Z,5.80
2024-03-12T13:59:08.062Z,7.00
2024-03-12T14:01:35.652Z,7.30
2024-03-12T14:04:03.349Z,11.40
2024-03-12T14:06:31.853Z,11.90
2024-03-12T14:08:59.456Z,11.60
2024-03-12T14:11:27.390Z,8.80
2024-03-12T14:13:57.105Z,5.80
2024-03-12T14:16:25.114Z,4.40
2024-03-12T14:18:54.090Z,7.00
2024-03-12T14:21:22.624Z,6.40
2024-03-12T14:23:50.352Z,7.10
2024-03-12T14:26:18.293Z,5.80
2024-03-12T14:28:47.482Z,6.50
2024-03-12T14:31:15.665Z,5.90
2024-03-12T14:33:43.691Z,6.30
2024-03-12T14:36:11.661Z,4.80
2024-03-12T14:38:39.571Z,5.80
2024-03-12T14:41:07.744Z,5.10
2024-03-12T14:43:35.836Z,6.20
2024-03-12T14:46:06.032Z,7.10
2024-03-12T14:48:36.011Z,6.70
2024-03-12T14:51:03.878Z,5.40
2024-03-12T14:53:31.404Z,5.20
2024-03-12T14:56:02.104Z,5.50
2024-03-12T14:58:29.678Z,4.80
2024-03-12T15:00:57.459Z,6.50
2024-03-12T15:03:26.643Z,6.00
2024-03-12T15:05:55.779Z,5.80
2024-03-12T15:08:24.510Z,5.40
2024-03-12T15:10:53.560Z,7.20
2024-03-12T15:13:21.844Z,6.70
2024-03-12T15:15:51.369Z,8.60
2024-03-12T15:18:21.455Z,5.90
2024-03-12T15:20:50.149Z,5.70
2024-03-12T15:23:17.575Z,5.20
2024-03-12T15:25:45.139Z,4.90
2024-03-12T15:28:12.856Z,5.80
2024-03-12T15:30:42.275Z,6.20
2024-03-12T15:33:12.308Z,7.20
2024-03-12T15:35:40.714Z,5.50
2024-03-12T15:38:08.139Z,6.70
2024-03-12T15:40:38.346Z,5.50
2024-03-12T15:43:07.175Z,6.20
2024-03-12T15:45:34.917Z,6.30
2024-03-12T15:48:02.871Z,5.10
2024-03-12T15:50:30.439Z,5.00
2024-03-12T15:52:58.409Z,5.30
2024-03-12T15:55:27.568Z,4.60
2024-03-12T15:57:55.880Z,4.80
2024-03-12T16:00:23.877Z,6.20
2024-03-12T16:02:55.763Z,5.50
2024-03-12T16:05:23.998Z,4.30
2024-03-12T16:07:52.730Z,4.40
2024-03-12T16:10:22.035Z,5.90
2024-03-12T16:12:49.897Z,4.70
2024-03-12T16:15:19.483Z,5.10
2024-03-12T16:17:47.309Z,5.20
2024-03-12T16:20:16.082Z,5.30
2024-03-12T16:22:44.431Z,4.50
2024-03-12T16:25:12.151Z,4.90
2024-03-12T16:27:41.122Z,5.90
2024-03-12T16:30:10.916Z,4.50
2024-03-12T16:32:41.370Z,4.30
2024-03-12T16:35:09.437Z,5.40
2024-03-12T16:37:39.304Z,4.10
2024-03-12T16:40:08.929Z,4.60
2024-03-12T16:42:37.165Z,5.20
2024-03-12T16:45:06.548Z,5.20
2024-03-12T16:47:34.193Z,4.60
2024-03-12T16:50:02.963Z,3.60
2024-03-12T16:52:30.357Z,4.30
2024-03-12T16:54:58.520Z,4.20
2024-03-12T16:57:26.350Z,4.90
2024-03-12T16:59:57.653Z,4.00
2024-03-12T17:02:26.279Z,6.60
2024-03-12T17:05:00.276Z,5.60
2024-03-12T17:07:28.040Z,4.50
2024-03-12T17:09:56.571Z,4.30
2024-03-12T17:12:25.517Z,4.30
2024-03-12T17:14:53.288Z,4.90
2024-03-12T17:17:24.438Z,5.30
2024-03-12T17:19:53.220Z,4.00
2024-03-12T17:22:21.421Z,4.00
2024-03-12T17:24:50.631Z,5.70
2024-03-12T17:27:20.351Z,4.50
2024-03-12T17:29:49.096Z,4.70
2024-03-12T17:32:17.351Z,6.40
2024-03-12T17:34:45.107Z,4.40
2024-03-12T17:37:16.795Z,3.90
2024-03-12T17:39:47.668Z,5.60
2024-03-12T17:42:17.168Z,4.80
2024-03-12T17:44:45.204Z,5.30
2024-03-12T17:47:12.663Z,5.70
2024-03-12T17:49:40.494Z,4.20
2024-03-12T17:52:09.729Z,4.40
2024-03-12T17:54:41.467Z,4.90
2024-03-12T17:57:13.983Z,4.40
2024-03-12T17:59:44.535Z,4.20
2024-03-12T18:02:15.083Z,5.00
2024-03-12T18:04:43.264Z,5.90
2024-03-12T18:07:31.481Z,5.20
2024-03-12T18:09:59.739Z,5.30
2024-03-12T18:12:27.836Z,4.90
2024-03-12T18:14:56.194Z,5.10
2024-03-12T18:17:24.799Z,5.20
2024-03-12T18:19:52.111Z,6.30
2024-03-12T18:22:20.025Z,5.60
2024-03-12T18:24:48.037Z,5.50
2024-03-12T18:27:15.653Z,5.50
2024-03-12T18:29:46.150Z,5.50
2024-03-12T18:32:15.894Z,5.20
2024-03-12T18:34:44.351Z,4.80
2024-03-12T18:37:12.092Z,4.90
2024-03-12T18:39:39.567Z,4.80
2024-03-12T18:42:07.361Z,4.60
2024-03-12T18:44:34.846Z,4.10
2024-03-12T18:47:03.906Z,5.30
2024-03-12T18:49:32.196Z,4.20
2024-03-12T18:52:01.727Z,4.60
2024-03-12T18:54:30.721Z,4.40
2024-03-12T18:56:59.016Z,4.40
2024-03-12T18:59:27.137Z,4.80
2024-03-12T19:01:55.110Z,5.70
2024-03-12T19:04:24.162Z,5.80
2024-03-12T19:06:52.586Z,4.80
2024-03-12T19:09:22.194Z,5.40
2024-03-12T19:11:50.602Z,4.00
2024-03-12T19:14:19.205Z,3.70
2024-03-12T19:16:51.193Z,3.90
2024-03-12T19:19:24.821Z,3.20
2024-03-12T19:21:53.101Z,3.60
2024-03-12T19:24:20.972Z,3.70
2024-03-12T19:26:49.259Z,4.40
2024-03-12T19:29:17.989Z,4.40
2024-03-12T19:31:45.951Z,3.90
2024-03-12T19:34:17.281Z,3.40
2024-03-12T19:36:46.002Z,4.70
2024-03-12T19:39:13.697Z,4.70
2024-03-12T19:41:45.975Z,3.90
2024-03-12T19:44:14.392Z,3.90
2024-03-12T19:46:42.214Z,4.30
2024-03-12T19:49:10.328Z,3.70
2024-03-12T19:51:38.612Z,3.60
2024-03-12T19:54:09.643Z,4.30
2024-03-12T19:56:37.557Z,4.60
2024-03-12T19:59:06.228Z,3.80
2024-03-12T20:01:34.682Z,3.90
2024-03-12T20:04:02.681Z,3.70
2024-03-12T20:06:32.584Z,3.60
2024-03-12T20:11:29.466Z,3.30
2024-03-12T20:13:57.208Z,3.10
2024-03-12T20:16:30.074Z,3.90
2024-03-12T20:18:58.128Z,3.20
2024-03-12T20:21:26.227Z,3.30
2024-03-12T20:23:53.807Z,3.20
2024-03-12T20:26:22.522Z,3.60
2024-03-12T20:28:49.926Z,3.90
2024-03-12T20:31:17.660Z,3.50
2024-03-12T20:33:46.416Z,3.30
2024-03-12T20:36:14.091Z,3.70
2024-03-12T20:38:43.163Z,3.40
2024-03-12T20:41:10.595Z,3.90
2024-03-12T20:43:38.794Z,3.50
2024-03-12T20:46:06.591Z,3.30
2024-03-12T20:48:34.365Z,3.80
2024-03-12T20:51:03.926Z,4.00
2024-03-12T20:53:32.196Z,4.30
2024-03-12T20:55:59.858Z,4.00
2024-03-12T20:58:29.210Z,4.60
2024-03-12T21:00:57.891Z,3.70
2024-03-12T21:03:30.309Z,3.30
2024-03-12T21:05:57.972Z,3.20
2024-03-12T21:08:25.265Z,3.60
2024-03-12T21:10:52.622Z,3.20
2024-03-12T21:13:21.437Z,3.10
2024-03-12T21:15:48.965Z,3.30
2024-03-12T21:18:18.972Z,3.10
2024-03-12T21:20:46.921Z,3.20
2024-03-12T21:23:14.377Z,2.80
2024-03-12T21:25:41.963Z,3.00
2024-03-12T21:28:11.180Z,3.00
2024-03-12T21:30:41.592Z,3.60
2024-03-12T21:33:11.184Z,3.20
2024-03-12T21:35:40.222Z,3.20
2024-03-12T21:38:08.956Z,3.40
2024-03-12T21:40:38.034Z,3.80
2024-03-12T21:43:06.942Z,3.90
2024-03-12T21:45:36.810Z,4.00
2024-03-12T21:48:08.173Z,4.10
2024-03-12T21:50:36.731Z,4.30
2024-03-12T21:53:09.251Z,4.30
2024-03-12T21:55:36.997Z,4.40
2024-03-12T21:58:05.485Z,4.20
2024-03-12T22:00:32.916Z,4.30
2024-03-12T22:03:02.523Z,4.70
2024-03-12T22:05:30.636Z,4.60
2024-03-12T22:07:58.806Z,3.90
2024-03-12T22:10:26.334Z,4.30
2024-03-12T22:12:53.983Z,3.30
2024-03-12T22:15:21.484Z,3.80
2024-03-12T22:17:49.555Z,3.40
2024-03-12T22:20:20.072Z,3.30
2024-03-12T22:22:50.736Z,3.10
2024-03-12T22:25:19.949Z,2.60
2024-03-12T22:27:49.578Z,3.10
2024-03-12T22:30:18.087Z,3.20
2024-03-12T22:32:46.600Z,3.50
2024-03-12T22:35:15.184Z,3.10
2024-03-12T22:37:48.470Z,3.80
2024-03-12T22:40:17.284Z,4.30
2024-03-12T22:42:44.937Z,5.00
2024-03-12T22:45:13.251Z,4.10
2024-03-12T22:47:42.833Z,3.90
2024-03-12T22:50:10.960Z,3.60
2024-03-12T22:52:41.819Z,3.10
2024-03-12T22:55:10.052Z,3.20
2024-03-12T22:57:40.015Z,3.20
2024-03-12T23:00:16.466Z,2.90
2024-03-12T23:02:45.319Z,3.00
2024-03-12T23:05:13.618Z,3.30
2024-03-12T23:07:42.782Z,3.20
2024-03-12T23:10:10.739Z,3.80
2024-03-12T23:12:38.151Z,3.50
2024-03-12T23:15:08.676Z,3.90
2024-03-12T23:20:08.001Z,5.80
2024-03-12T23:22:38.898Z,4.30
2024-03-12T23:25:07.121Z,4.00
2024-03-12T23:27:34.756Z,4.00
2024-03-12T23:30:02.173Z,4.60
2024-03-12T23:32:32.264Z,4.30
2024-03-12T23:34:59.892Z,4.50
2024-03-12T23:38:50.062Z,6.60
2024-03-12T23:41:17.557Z,3.90
2024-03-12T23:43:47.959Z,4.20
2024-03-12T23:46:15.737Z,4.30
2024-03-12T23:48:46.167Z,4.10
2024-03-12T23:51:14.454Z,4.80
2024-03-12T23:53:43.002Z,3.80
2024-03-12T23:56:11.784Z,4.10
2024-03-12T23:58:39.993Z,4.20
